createdAt,value
2022-09-27T00:04:12.600Z,8
2022-09-27T00:10:02.284Z,8
2022-09-27T00:15:02.452Z,6
2022-09-27T00:20:02.523Z,4
2022-09-27T00:25:12.691Z,3
2022-09-27T00:30:12.784Z,3
2022-09-27T00:36:02.503Z,4
2022-09-27T00:41:02.609Z,5
2022-09-27T00:46:12.813Z,5
2022-09-27T00:52:02.487Z,5
2022-09-27T00:57:02.482Z,6
2022-09-27T01:02:12.869Z,5
2022-09-27T01:07:12.813Z,6
2022-09-27T01:13:02.249Z,7
2022-09-27T01:18:02.495Z,7
2022-09-27T01:23:12.782Z,7
2022-09-27T01:29:02.453Z,9
2022-09-27T01:34:02.472Z,8
2022-09-27T01:39:12.803Z,9
2022-09-27T01:45:02.492Z,8
2022-09-27T01:50:12.839Z,8
2022-09-27T01:56:02.474Z,9
2022-09-27T02:01:02.544Z,9
2022-09-27T02:06:13.091Z,10
2022-09-27T02:11:12.787Z,5
2022-09-27T02:16:12.851Z,6
2022-09-27T02:21:12.869Z,5
2022-09-27T02:27:02.365Z,5
2022-09-27T02:32:12.765Z,6
2022-09-27T02:38:02.461Z,5
2022-09-27T02:43:12.830Z,7
2022-09-27T02:49:02.515Z,7
2022-09-27T02:54:12.813Z,5
2022-09-27T03:00:02.518Z,5
2022-09-27T03:05:02.487Z,6
2022-09-27T03:10:12.714Z,6
2022-09-27T03:16:02.504Z,6
2022-09-27T03:21:12.805Z,6
2022-09-27T03:27:02.463Z,6
2022-09-27T03:32:12.834Z,5
2022-09-27T03:37:12.917Z,5
2022-09-27T03:43:02.482Z,5
2022-09-27T03:48:12.583Z,7
2022-09-27T03:54:02.404Z,8
2022-09-27T03:59:12.568Z,8
2022-09-27T04:05:02.495Z,8
2022-09-27T04:10:02.509Z,8
2022-09-27T04:15:12.760Z,7
2022-09-27T04:20:12.876Z,5
2022-09-27T04:26:02.478Z,5
2022-09-27T04:31:12.841Z,5
2022-09-27T04:36:12.795Z,5
2022-09-27T04:42:02.452Z,6
2022-09-27T04:47:02.544Z,9
2022-09-27T04:52:12.914Z,9
2022-09-27T04:58:02.453Z,11
2022-09-27T05:03:02.547Z,8
2022-09-27T05:08:02.616Z,8
2022-09-27T05:13:12.762Z,8
2022-09-27T05:18:12.809Z,8
2022-09-27T05:24:02.243Z,7
2022-09-27T05:29:02.258Z,8
2022-09-27T05:34:12.524Z,8
2022-09-27T05:39:12.583Z,8
2022-09-27T05:44:12.574Z,8
2022-09-27T05:49:12.597Z,9
2022-09-27T05:55:02.278Z,9
2022-09-27T06:00:12.509Z,8
2022-09-27T06:05:12.525Z,7
2022-09-27T06:10:12.619Z,8
2022-09-27T06:16:02.283Z,6
2022-09-27T06:21:02.291Z,6
2022-09-27T06:26:12.941Z,6
2022-09-27T06:31:12.711Z,5
2022-09-27T06:36:12.682Z,4
2022-09-27T06:41:12.749Z,5
2022-09-27T06:46:12.831Z,5
2022-09-27T06:52:02.283Z,5
2022-09-27T06:57:12.502Z,5
2022-09-27T07:02:12.631Z,6
2022-09-27T07:07:12.732Z,5
2022-09-27T07:12:12.770Z,4
2022-09-27T07:18:02.457Z,4
2022-09-27T07:23:02.453Z,3
2022-09-27T07:28:12.798Z,3
2022-09-27T07:34:02.488Z,4
2022-09-27T07:39:02.469Z,4
2022-09-27T07:44:12.756Z,3
2022-09-27T07:50:02.510Z,3
2022-09-27T07:55:12.690Z,3
2022-09-27T08:01:02.573Z,3
2022-09-27T08:06:02.494Z,2
2022-09-27T08:11:12.725Z,3
2022-09-27T08:17:02.706Z,5
2022-09-27T08:22:12.558Z,2
2022-09-27T08:27:12.585Z,2
2022-09-27T08:33:02.452Z,3
2022-09-27T08:38:12.752Z,2
2022-09-27T08:44:02.425Z,2
2022-09-27T08:49:02.442Z,2
2022-09-27T08:54:12.586Z,2
2022-09-27T08:59:12.704Z,4
2022-09-27T09:05:02.422Z,2
2022-09-27T09:10:02.524Z,2
2022-09-27T09:15:12.745Z,3
2022-09-27T09:20:17.026Z,3
2022-09-27T09:26:02.286Z,3
2022-09-27T09:31:02.451Z,3
2022-09-27T09:36:12.751Z,3
2022-09-27T09:41:12.802Z,2
2022-09-27T09:47:02.418Z,2
2022-09-27T09:52:07.968Z,3
2022-09-27T09:57:12.574Z,2
2022-09-27T10:02:12.798Z,2
2022-09-27T10:08:02.412Z,2
2022-09-27T10:13:12.800Z,2
2022-09-27T10:19:02.599Z,1
2022-09-27T10:24:17.710Z,2
2022-09-27T10:29:12.863Z,1
2022-09-27T10:35:02.414Z,2
2022-09-27T10:40:02.440Z,2
2022-09-27T10:45:02.477Z,5
2022-09-27T10:50:02.483Z,3
2022-09-27T10:55:12.738Z,7
2022-09-27T11:00:12.803Z,2
2022-09-27T11:06:02.481Z,2
2022-09-27T11:11:02.481Z,3
2022-09-27T11:16:12.555Z,3
2022-09-27T11:21:12.747Z,4
2022-09-27T11:27:02.203Z,3
2022-09-27T11:32:02.551Z,3
2022-09-27T11:37:12.490Z,3
2022-09-27T11:42:12.557Z,4
2022-09-27T11:47:12.770Z,4
2022-09-27T11:53:02.297Z,4
2022-09-27T11:58:12.498Z,4
2022-09-27T12:04:02.320Z,2
2022-09-27T12:09:12.547Z,3
2022-09-27T12:14:12.627Z,3
2022-09-27T12:20:02.311Z,3
2022-09-27T12:25:15.002Z,3
2022-09-27T12:30:12.590Z,3
2022-09-27T12:35:12.624Z,5
2022-09-27T12:41:02.501Z,4
2022-09-27T12:46:12.586Z,3
2022-09-27T12:51:12.565Z,3
2022-09-27T12:56:12.559Z,3
2022-09-27T13:01:12.644Z,3
2022-09-27T13:06:12.779Z,3
2022-09-27T13:12:02.517Z,3
2022-09-27T13:17:02.439Z,2
2022-09-27T13:22:02.453Z,3
2022-09-27T13:27:12.827Z,3
2022-09-27T13:33:02.497Z,3
2022-09-27T13:38:12.714Z,3
2022-09-27T13:43:12.761Z,3
2022-09-27T13:49:02.289Z,3
2022-09-27T13:54:12.770Z,3
2022-09-27T14:00:02.312Z,2
2022-09-27T14:05:02.448Z,2
2022-09-27T14:10:12.535Z,3
2022-09-27T14:15:12.734Z,5
2022-09-27T14:21:02.479Z,4
2022-09-27T14:26:12.727Z,11
2022-09-27T14:31:12.966Z,6
2022-09-27T14:37:02.449Z,8
2022-09-27T14:42:02.454Z,12
2022-09-27T14:47:12.750Z,6
2022-09-27T14:52:12.730Z,4
2022-09-27T14:57:12.757Z,3
2022-09-27T15:03:02.611Z,3
2022-09-27T15:08:02.454Z,2
2022-09-27T15:13:12.762Z,4
2022-09-27T15:19:02.483Z,2
2022-09-27T15:24:12.751Z,2
2022-09-27T15:29:12.836Z,2
2022-09-27T15:35:02.487Z,3
2022-09-27T15:41:02.376Z,2
2022-09-27T15:46:12.753Z,2
2022-09-27T15:52:02.275Z,2
2022-09-27T15:57:02.297Z,2
2022-09-27T16:02:07.013Z,3
2022-09-27T16:07:12.750Z,3
2022-09-27T16:12:12.754Z,5
2022-09-27T16:17:12.751Z,3
2022-09-27T16:23:02.486Z,3
2022-09-27T16:28:12.748Z,4
2022-09-27T16:34:02.422Z,10
2022-09-27T16:39:02.485Z,2
2022-09-27T16:44:12.876Z,3
2022-09-27T16:50:02.445Z,3
2022-09-27T16:55:02.479Z,5
2022-09-27T17:00:12.781Z,8
2022-09-27T17:06:02.452Z,4
2022-09-27T17:11:12.802Z,4
2022-09-27T17:17:02.417Z,3
2022-09-27T17:22:02.428Z,3
2022-09-27T17:27:12.523Z,4
2022-09-27T17:32:12.576Z,4
2022-09-27T17:38:02.217Z,4
2022-09-27T17:43:02.311Z,4
2022-09-27T17:48:13.723Z,3
2022-09-27T17:53:12.542Z,4
2022-09-27T17:59:02.267Z,4
2022-09-27T18:04:02.261Z,4
2022-09-27T18:09:12.674Z,5
2022-09-27T18:15:02.279Z,8
2022-09-27T18:20:12.533Z,9
2022-09-27T18:26:02.255Z,7
2022-09-27T18:31:02.432Z,6
2022-09-27T18:36:02.414Z,5
2022-09-27T18:41:12.558Z,4
2022-09-27T18:46:34.623Z,4
2022-09-27T18:51:12.554Z,4
2022-09-27T18:56:12.614Z,4
2022-09-27T19:02:02.486Z,4
2022-09-27T19:07:02.452Z,4
2022-09-27T19:12:12.563Z,5
2022-09-27T19:17:12.757Z,6
2022-09-27T19:23:02.434Z,5
2022-09-27T19:28:02.493Z,6
2022-09-27T19:33:12.742Z,6
2022-09-27T19:38:21.795Z,8
2022-09-27T19:44:02.440Z,7
2022-09-27T19:49:02.475Z,5
2022-09-27T19:54:12.741Z,5
2022-09-27T19:59:12.779Z,4
2022-09-27T20:05:02.510Z,4
2022-09-27T20:10:12.618Z,5
2022-09-27T20:15:12.771Z,5
2022-09-27T20:21:02.237Z,4
2022-09-27T20:26:02.303Z,4
2022-09-27T20:31:02.538Z,3
2022-09-27T20:36:12.758Z,3
2022-09-27T20:42:02.232Z,3
2022-09-27T20:47:02.585Z,4
2022-09-27T20:52:12.747Z,3
2022-09-27T20:57:12.777Z,3
2022-09-27T21:03:02.441Z,4
2022-09-27T21:08:12.735Z,4
2022-09-27T21:13:12.730Z,4
2022-09-27T21:19:02.299Z,5
2022-09-27T21:24:02.467Z,5
2022-09-27T21:29:02.456Z,6
2022-09-27T21:34:02.479Z,6
2022-09-27T21:39:12.636Z,5
2022-09-27T21:44:12.577Z,4
2022-09-27T21:49:12.756Z,6
2022-09-27T21:55:02.480Z,4
2022-09-27T22:00:12.550Z,4
2022-09-27T22:06:02.474Z,5
2022-09-27T22:11:12.550Z,4
2022-09-27T22:17:02.441Z,4
2022-09-27T22:22:02.515Z,4
2022-09-27T22:27:12.617Z,4
2022-09-27T22:32:12.571Z,4
2022-09-27T22:38:02.427Z,4
2022-09-27T22:43:02.467Z,3
2022-09-27T22:48:12.536Z,3
2022-09-27T22:53:13.048Z,3
2022-09-27T22:59:02.413Z,3
2022-09-27T23:04:02.428Z,3
2022-09-27T23:09:20.750Z,3
2022-09-27T23:15:02.340Z,3
2022-09-27T23:20:12.500Z,3
2022-09-27T23:25:12.554Z,3
2022-09-27T23:31:02.277Z,3
2022-09-27T23:36:02.261Z,3
2022-09-27T23:41:02.424Z,3
2022-09-27T23:46:12.714Z,4
2022-09-27T23:51:12.596Z,2
2022-09-27T23:57:02.228Z,3
